Time;durP1;ratioP1;P1;durP2;ratioP2;P2;SDS_P1;SDS_P2;PMS_P1;PMS_P2;Temp;Humidity;BMP_temperature;BMP_pressure;BME280_temperature;BME280_humidity;BME280_pressure;Samples;Min_cycle;Max_cycle;Signal;HPM_P1;HPM_P2
2024/01/22 00:02:30;;;;;;;;;16.50;13.00;;;;;-0.43;89.19;101374.56;113084;239;39614;-53
2024/01/22 00:05:07;;;;;;;;;29.00;21.00;;;;;-0.41;89.03;101371.09;113084;239;40090;-54
2024/01/22 00:07:42;;;;;;;;;25.75;19.00;;;;;-0.39;89.03;101372.88;113106;240;39542;-54
2024/01/22 00:10:21;;;;;;;;;25.25;18.25;;;;;-0.38;89.12;101367.32;113110;239;40290;-55
2024/01/22 00:13:02;;;;;;;;;21.50;15.00;;;;;-0.33;89.04;101361.05;113062;239;40063;-55
2024/01/22 00:15:38;;;;;;;;;19.00;15.00;;;;;-0.30;88.94;101359.07;113137;239;39621;-53
2024/01/22 00:18:15;;;;;;;;;20.00;15.00;;;;;-0.29;88.78;101349.81;113093;240;39961;-52
2024/01/22 00:20:59;;;;;;;;;21.00;14.00;;;;;-0.31;88.84;101346.92;113155;240;39541;-56
2024/01/22 00:23:38;;;;;;;;;24.33;16.67;;;;;-0.33;88.75;101343.52;113094;239;39674;-56
2024/01/22 00:26:15;;;;;;;;;25.00;17.25;;;;;-0.35;88.70;101336.04;113123;239;39633;-53
2024/01/22 00:28:56;;;;;;;;;18.33;16.00;;;;;-0.35;88.56;101322.02;113085;240;39952;-53
2024/01/22 00:31:33;;;;;;;;;17.00;14.00;;;;;-0.38;88.48;101323.64;113089;240;39588;-56
2024/01/22 00:34:10;;;;;;;;;20.00;14.00;;;;;-0.39;88.24;101321.08;113128;239;39722;-53
2024/01/22 00:36:53;;;;;;;;;25.00;18.50;;;;;-0.42;88.06;101318.09;113121;239;39443;-52
2024/01/22 00:39:33;;;;;;;;;18.00;14.75;;;;;-0.46;87.94;101317.09;113117;239;39262;-52
2024/01/22 00:42:11;;;;;;;;;32.00;23.00;;;;;-0.49;87.79;101311.11;113099;240;41492;-51
2024/01/22 00:44:47;;;;;;;;;42.50;29.50;;;;;-0.50;87.79;101308.14;113113;239;40771;-52
2024/01/22 00:47:23;;;;;;;;;31.00;20.33;;;;;-0.49;87.72;101302.27;113072;240;40110;-52
2024/01/22 00:49:58;;;;;;;;;22.50;15.50;;;;;-0.46;87.57;101288.62;113139;240;39180;-52
2024/01/22 00:52:35;;;;;;;;;29.75;21.25;;;;;-0.45;87.25;101282.69;113090;239;40619;-52
2024/01/22 00:55:10;;;;;;;;;30.00;21.00;;;;;-0.48;87.29;101282.33;113105;239;39746;-56
2024/01/22 00:57:45;;;;;;;;;37.33;23.67;;;;;-0.52;87.01;101284.95;113115;240;39518;-56
2024/01/22 01:00:20;;;;;;;;;45.67;32.00;;;;;-0.59;86.95;101286.08;113096;239;39246;-52
2024/01/22 01:02:55;;;;;;;;;28.00;21.25;;;;;-0.65;86.92;101284.65;113081;240;39578;-52
2024/01/22 01:05:30;;;;;;;;;31.00;21.67;;;;;-0.68;86.82;101279.19;113152;239;40386;-53
2024/01/22 01:08:06;;;;;;;;;19.00;14.00;;;;;-0.72;86.74;101274.84;113105;240;39504;-53
2024/01/22 01:10:41;;;;;;;;;27.00;19.00;;;;;-0.77;86.63;101269.02;113130;240;39962;-53
2024/01/22 01:13:18;;;;;;;;;27.25;19.50;;;;;-0.85;86.60;101267.87;112990;239;39970;-53
2024/01/22 01:15:55;;;;;;;;;23.00;18.00;;;;;-0.93;86.72;101269.99;112846;240;41664;-52
2024/01/22 01:18:32;;;;;;;;;22.75;16.00;;;;;-1.01;86.52;101271.91;112791;240;39724;-52
2024/01/22 01:21:10;;;;;;;;;25.67;18.00;;;;;-1.10;86.62;101265.09;112820;240;39882;-52
2024/01/22 01:23:46;;;;;;;;;16.25;11.50;;;;;-1.17;86.47;101259.70;112793;240;40511;-52
2024/01/22 01:26:24;;;;;;;;;21.00;15.67;;;;;-1.26;86.34;101258.59;112750;240;39724;-55
2024/01/22 01:29:03;;;;;;;;;20.00;14.00;;;;;-1.35;86.53;101268.52;112827;240;40007;-54
2024/01/22 01:31:38;;;;;;;;;18.00;12.00;;;;;-1.44;86.59;101270.52;112840;240;39696;-55
2024/01/22 01:34:15;;;;;;;;;17.00;10.67;;;;;-1.51;86.59;101271.11;112837;240;40124;-56
2024/01/22 01:36:52;;;;;;;;;12.00;11.00;;;;;-1.56;86.59;101274.05;112806;240;39611;-57
2024/01/22 01:39:29;;;;;;;;;18.50;12.50;;;;;-1.59;86.46;101265.21;112851;240;39627;-55
2024/01/22 01:42:06;;;;;;;;;15.00;10.00;;;;;-1.62;86.34;101256.95;112781;240;41629;-55
2024/01/22 01:44:53;;;;;;;;;8.00;6.00;;;;;-1.62;86.20;101256.92;112818;240;39874;-53
2024/01/22 01:47:28;;;;;;;;;15.00;11.00;;;;;-1.58;86.21;101269.23;112770;240;39910;-53
2024/01/22 01:50:06;;;;;;;;;16.00;12.00;;;;;-1.56;86.27;101271.20;112776;240;40674;-53
2024/01/22 01:52:44;;;;;;;;;15.25;12.00;;;;;-1.49;86.23;101261.41;112796;240;40362;-53
2024/01/22 01:55:21;;;;;;;;;21.00;16.00;;;;;-1.43;86.24;101270.27;112808;240;40962;-53
2024/01/22 01:57:56;;;;;;;;;19.00;14.00;;;;;-1.35;86.41;101273.68;112788;240;39334;-52
2024/01/22 02:00:32;;;;;;;;;15.50;10.00;;;;;-1.29;86.16;101271.91;112812;240;40637;-52
2024/01/22 02:03:12;;;;;;;;;16.50;11.50;;;;;-1.29;86.06;101275.05;112779;240;39108;-52
2024/01/22 02:05:53;;;;;;;;;15.25;11.50;;;;;-1.27;85.85;101264.66;112858;240;39417;-51
2024/01/22 02:08:32;;;;;;;;;15.00;10.00;;;;;-1.23;85.30;101255.60;112784;240;40097;-52
2024/01/22 02:11:08;;;;;;;;;15.00;9.25;;;;;-1.24;85.20;101258.84;112770;240;40720;-54
2024/01/22 02:13:44;;;;;;;;;10.67;7.33;;;;;-1.27;84.91;101261.67;112768;240;40454;-54
2024/01/22 02:16:21;;;;;;;;;7.00;5.00;;;;;-1.32;84.68;101260.40;112788;240;40152;-55
2024/01/22 02:19:00;;;;;;;;;12.00;9.00;;;;;-1.35;84.64;101256.54;112812;240;39730;-55
2024/01/22 02:21:37;;;;;;;;;13.00;10.00;;;;;-1.40;84.72;101252.05;112778;240;39851;-56
2024/01/22 02:24:11;;;;;;;;;11.75;7.00;;;;;-1.43;84.69;101252.59;112839;240;39722;-54
2024/01/22 02:26:48;;;;;;;;;11.50;8.25;;;;;-1.46;84.60;101259.30;112803;240;39227;-55
2024/01/22 02:29:26;;;;;;;;;8.00;6.00;;;;;-1.50;84.69;101259.74;112853;240;40196;-55
2024/01/22 02:32:06;;;;;;;;;13.33;8.00;;;;;-1.52;84.47;101250.16;112795;240;40313;-55
2024/01/22 02:34:41;;;;;;;;;11.00;8.50;;;;;-1.54;84.14;101243.22;112848;240;39690;-56
2024/01/22 02:37:19;;;;;;;;;10.00;7.50;;;;;-1.56;84.10;101243.48;112820;240;39902;-57
2024/01/22 02:39:54;;;;;;;;;14.00;10.00;;;;;-1.59;83.97;101241.38;112815;240;40080;-53
2024/01/22 02:42:28;;;;;;;;;10.50;8.00;;;;;-1.61;83.66;101229.65;112787;240;39513;-52
2024/01/22 02:45:03;;;;;;;;;9.75;7.25;;;;;-1.63;83.56;101211.40;112820;240;40398;-56
2024/01/22 02:47:40;;;;;;;;;9.00;6.50;;;;;-1.62;83.26;101204.80;112800;240;39929;-57
2024/01/22 02:50:16;;;;;;;;;10.25;7.00;;;;;-1.62;83.37;101196.73;112819;240;40215;-52
2024/01/22 02:52:53;;;;;;;;;15.00;10.00;;;;;-1.62;83.40;101184.35;112837;240;40822;-53
2024/01/22 02:55:30;;;;;;;;;9.00;7.00;;;;;-1.59;83.51;101180.44;112803;240;40766;-53
2024/01/22 02:58:07;;;;;;;;;11.75;9.75;;;;;-1.51;83.19;101176.09;112775;240;40908;-53
2024/01/22 03:00:45;;;;;;;;;13.00;11.00;;;;;-1.43;83.12;101173.09;112782;240;40709;-53
2024/01/22 03:03:21;;;;;;;;;9.00;7.00;;;;;-1.32;82.96;101175.21;112825;240;39867;-53
2024/01/22 03:06:01;;;;;;;;;12.00;9.00;;;;;-1.26;82.91;101173.08;112832;240;41337;-52
2024/01/22 03:08:42;;;;;;;;;10.00;7.25;;;;;-1.25;83.06;101172.30;112828;240;40415;-52
2024/01/22 03:11:20;;;;;;;;;11.00;9.00;;;;;-1.24;83.00;101169.59;112790;240;39046;-52
2024/01/22 03:13:56;;;;;;;;;6.00;4.75;;;;;-1.20;82.63;101177.51;112837;240;39735;-56
2024/01/22 03:16:32;;;;;;;;;9.00;7.00;;;;;-1.18;82.44;101170.45;112796;240;39386;-56
2024/01/22 03:19:10;;;;;;;;;11.25;7.75;;;;;-1.13;81.78;101170.52;112783;240;41102;-56
2024/01/22 03:21:46;;;;;;;;;6.00;5.00;;;;;-1.10;81.51;101175.30;112777;240;41036;-57
2024/01/22 03:24:25;;;;;;;;;9.00;6.00;;;;;-1.11;81.71;101178.14;112801;240;39540;-55
2024/01/22 03:26:59;;;;;;;;;7.00;5.50;;;;;-1.12;81.70;101176.97;112773;240;39737;-55
2024/01/22 03:29:38;;;;;;;;;8.50;6.00;;;;;-1.11;81.39;101166.15;112830;240;39598;-55
2024/01/22 03:32:12;;;;;;;;;7.50;5.00;;;;;-1.11;81.26;101166.67;112777;240;39427;-54
2024/01/22 03:34:47;;;;;;;;;8.00;5.00;;;;;-1.09;80.78;101162.98;112804;240;40755;-52
2024/01/22 03:37:25;;;;;;;;;10.25;6.25;;;;;-1.08;80.88;101156.92;112767;240;40804;-51
2024/01/22 03:40:02;;;;;;;;;6.00;5.00;;;;;-1.08;80.69;101148.45;112796;240;40666;-55
2024/01/22 03:42:39;;;;;;;;;8.00;6.00;;;;;-1.06;80.41;101152.77;112785;240;40084;-54
2024/01/22 03:45:15;;;;;;;;;7.75;5.00;;;;;-1.06;80.51;101148.69;112807;240;40998;-55
2024/01/22 03:47:51;;;;;;;;;10.00;6.00;;;;;-1.06;80.31;101153.63;112824;240;41454;-54
2024/01/22 03:50:31;;;;;;;;;6.00;4.75;;;;;-1.05;79.68;101158.02;112812;240;40236;-56
2024/01/22 03:53:08;;;;;;;;;8.25;7.00;;;;;-1.04;79.73;101164.81;112793;240;40606;-56
2024/01/22 03:55:45;;;;;;;;;10.50;7.00;;;;;-1.07;79.97;101161.11;112862;240;40086;-54
2024/01/22 03:58:23;;;;;;;;;5.00;4.00;;;;;-1.10;79.88;101154.96;112850;240;40149;-53
2024/01/22 04:01:02;;;;;;;;;6.00;5.00;;;;;-1.13;79.77;101148.58;112812;240;39764;-53
2024/01/22 04:03:39;;;;;;;;;11.00;7.50;;;;;-1.17;79.76;101150.42;112782;240;39642;-52
2024/01/22 04:06:17;;;;;;;;;9.75;7.25;;;;;-1.21;79.86;101146.59;112822;240;41405;-53
2024/01/22 04:08:56;;;;;;;;;7.00;6.00;;;;;-1.27;80.03;101145.23;112835;240;39400;-52
2024/01/22 04:11:33;;;;;;;;;5.75;4.00;;;;;-1.31;79.96;101136.84;112758;240;39205;-51
2024/01/22 04:14:11;;;;;;;;;13.25;8.00;;;;;-1.31;79.69;101131.21;112816;240;40017;-53
2024/01/22 04:16:50;;;;;;;;;6.00;4.00;;;;;-1.31;79.77;101127.11;112782;240;39424;-52
2024/01/22 04:19:26;;;;;;;;;7.50;6.00;;;;;-1.28;79.42;101125.51;112814;240;40568;-55
2024/01/22 04:22:03;;;;;;;;;6.75;5.00;;;;;-1.27;79.54;101111.29;112828;240;39434;-55
2024/01/22 04:24:41;;;;;;;;;9.00;6.00;;;;;-1.25;79.61;101106.40;112814;240;40488;-55
2024/01/22 04:27:21;;;;;;;;;6.00;4.00;;;;;-1.23;79.56;101103.10;112792;240;39888;-55
2024/01/22 04:30:00;;;;;;;;;5.00;3.00;;;;;-1.22;79.57;101103.39;112791;240;39588;-54
2024/01/22 04:32:43;;;;;;;;;8.00;7.00;;;;;-1.20;79.54;101100.24;112791;240;39717;-53
2024/01/22 04:35:20;;;;;;;;;7.67;4.67;;;;;-1.15;79.64;101092.56;112804;240;40013;-56
2024/01/22 04:37:59;;;;;;;;;10.75;7.00;;;;;-1.10;79.50;101091.48;112803;240;40122;-57
2024/01/22 04:40:33;;;;;;;;;8.00;5.00;;;;;-1.03;79.44;101092.98;112833;240;39317;-54
2024/01/22 04:43:17;;;;;;;;;5.00;3.50;;;;;-0.99;79.41;101090.41;112767;240;39838;-54
2024/01/22 04:45:57;;;;;;;;;8.00;6.25;;;;;-0.91;78.73;101076.08;112796;240;39791;-52
2024/01/22 04:48:37;;;;;;;;;6.25;5.00;;;;;-0.85;78.82;101070.96;112794;240;41029;-52
2024/01/22 04:51:13;;;;;;;;;9.50;7.00;;;;;-0.84;78.38;101066.25;112835;240;39873;-55
2024/01/22 04:53:49;;;;;;;;;9.75;7.50;;;;;-0.83;78.50;101052.95;112834;240;39899;-55
2024/01/22 04:56:22;;;;;;;;;9.00;7.00;;;;;-0.84;77.92;101044.71;112809;240;40274;-56
2024/01/22 04:58:57;;;;;;;;;7.00;6.00;;;;;-0.87;77.82;101045.95;112797;240;39625;-56
2024/01/22 05:01:31;;;;;;;;;8.00;6.00;;;;;-0.90;78.05;101041.92;112795;240;40384;-57
2024/01/22 05:04:10;;;;;;;;;11.00;7.00;;;;;-0.90;78.14;101045.13;112782;240;39566;-55
2024/01/22 05:06:46;;;;;;;;;7.00;5.00;;;;;-0.88;78.06;101049.17;112387;240;465576;-55
2024/01/22 05:09:27;;;;;;;;;9.00;7.00;;;;;-0.86;78.13;101047.83;112814;240;41023;-53
2024/01/22 05:12:06;;;;;;;;;8.00;6.00;;;;;-0.82;77.84;101036.95;112813;240;39528;-52
2024/01/22 05:14:42;;;;;;;;;9.00;6.75;;;;;-0.84;77.52;101026.14;112784;240;39496;-54
2024/01/22 05:17:17;;;;;;;;;12.00;8.00;;;;;-0.89;77.29;101023.85;112787;240;39904;-53
2024/01/22 05:19:54;;;;;;;;;7.00;6.00;;;;;-0.93;77.12;101018.42;112813;240;40159;-54
2024/01/22 05:22:30;;;;;;;;;15.00;11.00;;;;;-0.97;77.24;101021.02;112782;240;39822;-55
2024/01/22 05:25:10;;;;;;;;;9.00;7.00;;;;;-0.98;76.91;101014.52;112829;240;40890;-56
2024/01/22 05:27:50;;;;;;;;;14.00;10.00;;;;;-1.02;76.96;101012.51;112798;240;40734;-57
2024/01/22 05:30:30;;;;;;;;;7.00;5.00;;;;;-1.02;76.71;101024.36;112832;240;40963;-55
2024/01/22 05:33:05;;;;;;;;;10.00;7.25;;;;;-0.99;76.52;101018.14;112774;240;39313;-55
2024/01/22 05:35:44;;;;;;;;;8.00;6.00;;;;;-0.98;76.84;101018.56;112816;240;40397;-56
2024/01/22 05:38:22;;;;;;;;;9.00;7.00;;;;;-0.96;76.96;101016.15;112804;240;39219;-57
2024/01/22 05:40:57;;;;;;;;;8.00;6.00;;;;;-0.92;76.76;101007.73;112803;240;39796;-57
2024/01/22 05:43:36;;;;;;;;;10.00;8.00;;;;;-0.90;76.84;101002.45;112784;240;39272;-57
2024/01/22 05:46:12;;;;;;;;;8.00;6.00;;;;;-0.86;76.58;100996.57;112799;240;39968;-53
2024/01/22 05:48:51;;;;;;;;;7.50;5.75;;;;;-0.84;76.58;100985.64;112787;240;41224;-53
2024/01/22 05:51:29;;;;;;;;;6.33;5.00;;;;;-0.82;76.72;100976.48;112778;240;41404;-52
2024/01/22 05:54:03;;;;;;;;;8.75;6.00;;;;;-0.81;76.77;100973.80;112851;240;40590;-54
2024/01/22 05:56:42;;;;;;;;;7.00;6.00;;;;;-0.83;76.53;100964.36;112801;240;39986;-53
2024/01/22 05:59:19;;;;;;;;;9.00;7.25;;;;;-0.86;76.47;100962.41;112764;240;39761;-53
2024/01/22 06:01:58;;;;;;;;;8.00;5.00;;;;;-0.91;76.54;100961.18;112797;240;39230;-53
2024/01/22 06:04:35;;;;;;;;;7.00;6.00;;;;;-0.94;76.83;100957.48;112809;240;39315;-53
2024/01/22 06:07:17;;;;;;;;;8.00;5.00;;;;;-0.89;76.64;100952.08;112767;240;39189;-54
2024/01/22 06:09:58;;;;;;;;;8.50;6.00;;;;;-0.85;76.69;100941.67;112806;240;39299;-56
2024/01/22 06:12:39;;;;;;;;;11.00;8.75;;;;;-0.77;76.15;100934.40;112796;240;39730;-56
2024/01/22 06:15:23;;;;;;;;;9.00;7.00;;;;;-0.69;76.05;100933.65;112795;240;39686;-53
2024/01/22 06:18:02;;;;;;;;;8.00;7.00;;;;;-0.62;76.07;100918.20;112825;240;39320;-54
2024/01/22 06:20:40;;;;;;;;;7.00;6.00;;;;;-0.58;75.79;100902.68;112759;240;41751;-56
2024/01/22 06:23:19;;;;;;;;;7.00;6.00;;;;;-0.52;75.23;100897.31;112772;240;39260;-57
2024/01/22 06:25:59;;;;;;;;;10.75;8.75;;;;;-0.47;75.41;100893.77;112783;240;39138;-55
2024/01/22 06:28:38;;;;;;;;;8.00;6.00;;;;;-0.45;75.23;100881.27;112788;240;39358;-54
2024/01/22 06:31:16;;;;;;;;;7.25;5.75;;;;;-0.46;75.41;100876.40;112817;240;40315;-54
2024/01/22 06:33:53;;;;;;;;;14.00;9.00;;;;;-0.49;75.32;100862.85;112806;240;39349;-53
2024/01/22 06:36:31;;;;;;;;;8.00;6.00;;;;;-0.51;74.91;100859.73;112804;240;41030;-53
2024/01/22 06:39:08;;;;;;;;;7.00;6.00;;;;;-0.54;74.96;100856.25;112837;240;40950;-53
2024/01/22 06:41:45;;;;;;;;;7.33;5.67;;;;;-0.56;74.55;100858.15;112781;241;40400;-53
2024/01/22 06:44:24;;;;;;;;;7.75;6.00;;;;;-0.53;73.80;100866.66;112792;241;40912;-55
2024/01/22 06:47:05;;;;;;;;;7.00;5.00;;;;;-0.49;73.93;100871.27;112819;241;39166;-55
2024/01/22 06:49:41;;;;;;;;;6.00;5.00;;;;;-0.44;74.21;100877.80;112809;241;39693;-54
2024/01/22 06:52:18;;;;;;;;;8.00;7.00;;;;;-0.41;74.13;100868.27;112797;241;41155;-53
2024/01/22 06:54:56;;;;;;;;;8.25;6.25;;;;;-0.36;73.91;100854.60;112812;241;40728;-53
2024/01/22 06:57:36;;;;;;;;;9.00;7.00;;;;;-0.30;73.59;100847.80;112767;241;39995;-53
2024/01/22 07:00:15;;;;;;;;;4.00;4.00;;;;;-0.24;73.50;100850.04;112797;241;39695;-52
2024/01/22 07:02:53;;;;;;;;;6.00;5.00;;;;;-0.19;73.62;100851.41;112790;241;40600;-53
2024/01/22 07:05:34;;;;;;;;;8.50;6.00;;;;;-0.13;73.00;100863.36;112787;241;40733;-55
2024/01/22 07:08:11;;;;;;;;;9.00;5.00;;;;;-0.06;72.65;100870.66;112777;241;40734;-55
2024/01/22 07:10:50;;;;;;;;;6.50;5.00;;;;;-0.01;72.61;100870.09;112806;241;41162;-53
2024/01/22 07:13:25;;;;;;;;;6.75;5.75;;;;;0.06;72.33;100875.27;112786;241;39553;-55
2024/01/22 07:16:02;;;;;;;;;9.75;7.00;;;;;0.09;72.08;100859.80;112826;241;40351;-58
2024/01/22 07:18:39;;;;;;;;;9.25;6.25;;;;;0.12;72.65;100866.14;112778;241;39874;-56
2024/01/22 07:21:15;;;;;;;;;5.00;4.00;;;;;0.17;72.67;100874.96;112801;241;39635;-56
2024/01/22 07:23:52;;;;;;;;;10.50;7.50;;;;;0.24;71.66;100883.88;112840;241;40243;-56
2024/01/22 07:26:29;;;;;;;;;6.00;5.00;;;;;0.32;72.14;100885.78;112787;241;40356;-55
2024/01/22 07:29:08;;;;;;;;;8.00;6.00;;;;;0.43;71.50;100877.63;112812;241;40692;-55
2024/01/22 07:31:47;;;;;;;;;6.00;5.75;;;;;0.65;71.60;100882.20;112794;241;39759;-55
2024/01/22 07:34:26;;;;;;;;;7.25;6.00;;;;;0.68;71.43;100877.56;112831;241;40393;-53
2024/01/22 07:37:06;;;;;;;;;6.25;5.00;;;;;0.65;71.32;100872.84;112765;241;39960;-53
2024/01/22 07:39:42;;;;;;;;;6.00;4.00;;;;;0.67;70.86;100868.27;112802;240;39532;-52
2024/01/22 07:42:22;;;;;;;;;7.00;6.00;;;;;0.69;70.72;100870.02;112826;240;39489;-52
2024/01/22 07:44:57;;;;;;;;;6.25;4.50;;;;;0.75;70.77;100861.77;112807;240;39971;-53
2024/01/22 07:47:35;;;;;;;;;6.00;5.00;;;;;0.82;70.73;100856.48;112799;240;39661;-53
2024/01/22 07:50:14;;;;;;;;;8.00;7.00;;;;;0.90;70.40;100859.25;112827;240;40333;-54
2024/01/22 07:52:50;;;;;;;;;6.00;4.67;;;;;0.96;70.01;100857.90;112761;240;40952;-54
2024/01/22 07:55:33;;;;;;;;;7.00;5.00;;;;;0.95;70.28;100847.98;112809;240;39452;-55
2024/01/22 07:58:14;;;;;;;;;6.00;4.00;;;;;1.00;69.78;100840.39;112797;240;41228;-55
2024/01/22 08:00:55;;;;;;;;;8.50;7.00;;;;;1.02;69.82;100838.77;112789;240;39156;-53
2024/01/22 08:03:34;;;;;;;;;7.33;5.00;;;;;1.06;69.57;100827.14;112787;240;40310;-53
2024/01/22 08:06:16;;;;;;;;;6.67;5.67;;;;;1.08;68.55;100815.59;112798;240;40978;-53
2024/01/22 08:08:58;;;;;;;;;7.00;5.00;;;;;1.11;68.93;100817.33;112783;240;40561;-56
2024/01/22 08:11:39;;;;;;;;;7.00;5.00;;;;;1.17;68.29;100817.38;112730;240;43046;-56
2024/01/22 08:14:19;;;;;;;;;7.00;5.50;;;;;1.26;68.91;100818.27;112809;240;40559;-56
2024/01/22 08:16:57;;;;;;;;;10.00;8.00;;;;;1.34;68.92;100813.26;112782;240;40255;-56
2024/01/22 08:19:36;;;;;;;;;6.75;5.50;;;;;1.43;68.64;100818.89;112856;240;40080;-55
2024/01/22 08:22:12;;;;;;;;;9.00;6.67;;;;;1.53;67.50;100805.81;112811;240;39425;-55
2024/01/22 08:24:50;;;;;;;;;6.25;6.00;;;;;1.60;67.66;100804.66;112793;240;41084;-55
2024/01/22 08:27:29;;;;;;;;;9.00;7.00;;;;;1.65;67.55;100799.14;112746;240;39388;-56
2024/01/22 08:30:04;;;;;;;;;9.00;6.33;;;;;1.75;66.43;100793.92;112777;240;39885;-52
2024/01/22 08:32:43;;;;;;;;;8.00;4.67;;;;;1.82;66.70;100787.68;112818;240;40204;-53
2024/01/22 08:35:21;;;;;;;;;7.00;6.00;;;;;1.87;66.57;100785.14;112833;240;39759;-52
2024/01/22 08:38:00;;;;;;;;;8.00;6.00;;;;;1.90;66.11;100776.57;112795;240;39573;-52
2024/01/22 08:40:38;;;;;;;;;5.00;4.00;;;;;1.95;66.14;100766.88;112774;240;41668;-56
2024/01/22 08:43:16;;;;;;;;;6.00;5.00;;;;;1.98;66.22;100766.64;112806;240;39228;-55
2024/01/22 08:45:55;;;;;;;;;9.00;7.00;;;;;2.01;65.93;100766.05;112854;240;39907;-55
2024/01/22 08:48:32;;;;;;;;;7.25;7.00;;;;;2.02;65.22;100760.05;112759;240;40895;-55
2024/01/22 08:51:12;;;;;;;;;8.00;6.00;;;;;2.06;64.95;100752.64;112814;240;41314;-54
2024/01/22 08:53:50;;;;;;;;;6.25;4.50;;;;;2.10;64.61;100748.77;112789;240;41368;-53
2024/01/22 08:56:30;;;;;;;;;8.50;7.00;;;;;2.11;64.99;100748.14;112766;240;39323;-53
2024/01/22 08:59:11;;;;;;;;;5.00;4.00;;;;;2.18;64.84;100743.43;112812;240;39568;-55
2024/01/22 09:01:47;;;;;;;;;7.00;5.00;;;;;2.23;65.01;100740.34;112801;240;39802;-55
2024/01/22 09:04:39;;;;;;;;;7.00;6.00;;;;;2.26;64.62;100734.23;112816;240;40397;-53
2024/01/22 09:07:20;;;;;;;;;7.33;5.33;;;;;2.33;64.32;100733.14;112785;240;39804;-52
2024/01/22 09:09:58;;;;;;;;;8.25;6.00;;;;;2.39;64.27;100725.89;112840;240;40227;-52
2024/01/22 09:12:36;;;;;;;;;7.00;5.00;;;;;2.43;63.96;100719.11;112801;240;39372;-52
2024/01/22 09:15:12;;;;;;;;;8.25;6.00;;;;;2.47;64.01;100712.25;112844;240;39901;-55
2024/01/22 09:17:53;;;;;;;;;6.00;5.00;;;;;2.51;64.01;100705.52;112789;240;40992;-54
2024/01/22 09:20:32;;;;;;;;;4.75;3.75;;;;;2.59;63.04;100705.55;112800;240;39894;-54
2024/01/22 09:23:16;;;;;;;;;10.00;8.00;;;;;2.63;62.46;100702.98;112812;240;39468;-54
2024/01/22 09:25:52;;;;;;;;;7.00;5.67;;;;;2.67;62.48;100697.11;112819;240;40212;-55
2024/01/22 09:28:30;;;;;;;;;8.00;5.00;;;;;2.75;61.29;100695.58;112829;240;39689;-56
2024/01/22 09:31:14;;;;;;;;;12.50;6.75;;;;;2.80;61.58;100692.23;112795;240;41275;-55
2024/01/22 09:33:53;;;;;;;;;5.50;4.50;;;;;2.85;61.20;100682.58;112776;240;40867;-54
2024/01/22 09:36:34;;;;;;;;;9.67;8.00;;;;;2.87;59.91;100677.05;112779;240;40680;-52
2024/01/22 09:39:12;;;;;;;;;6.00;6.00;;;;;2.93;60.97;100678.49;112813;240;41061;-54
2024/01/22 09:42:00;;;;;;;;;7.00;5.75;;;;;2.99;61.32;100673.68;112804;240;40019;-54
2024/01/22 09:44:37;;;;;;;;;8.00;5.00;;;;;3.06;59.81;100674.52;112823;240;39880;-52
2024/01/22 09:47:15;;;;;;;;;6.00;5.25;;;;;3.10;59.71;100667.40;112810;240;39365;-52
2024/01/22 09:49:53;;;;;;;;;7.00;5.00;;;;;3.13;60.32;100659.52;112808;240;40039;-56
2024/01/22 09:52:29;;;;;;;;;12.75;9.00;;;;;3.13;60.72;100651.11;112810;240;40629;-57
2024/01/22 09:55:06;;;;;;;;;6.00;4.00;;;;;3.18;59.86;100634.98;112803;240;41006;-52
2024/01/22 09:57:52;;;;;;;;;5.00;4.00;;;;;3.19;59.15;100615.88;112826;240;40524;-51
2024/01/22 10:00:36;;;;;;;;;8.00;7.00;;;;;3.22;59.11;100598.38;112811;240;41204;-54
2024/01/22 10:03:12;;;;;;;;;4.00;3.75;;;;;3.25;59.22;100591.69;112806;240;40175;-54
2024/01/22 10:05:50;;;;;;;;;6.25;6.00;;;;;3.29;58.60;100602.91;112837;240;40816;-54
2024/01/22 10:08:32;;;;;;;;;5.00;4.00;;;;;3.32;58.20;100602.24;112777;240;39986;-54
2024/01/22 10:11:15;;;;;;;;;7.00;6.00;;;;;3.34;58.04;100596.71;112799;240;39762;-52
2024/01/22 10:13:59;;;;;;;;;8.00;6.75;;;;;3.37;58.69;100588.60;112787;240;39569;-54
2024/01/22 10:16:41;;;;;;;;;6.00;5.00;;;;;3.39;57.76;100590.39;112790;240;39507;-55
2024/01/22 10:19:26;;;;;;;;;6.00;4.50;;;;;3.38;57.63;100587.05;112797;240;39922;-53
2024/01/22 10:22:05;;;;;;;;;6.67;5.00;;;;;3.36;57.51;100574.09;112786;240;39603;-53
2024/01/22 10:24:41;;;;;;;;;5.50;5.00;;;;;3.31;56.41;100564.63;112801;240;39686;-56
2024/01/22 10:27:34;;;;;;;;;8.00;6.00;;;;;3.27;56.40;100549.27;112791;240;40155;-55
2024/01/22 10:30:25;;;;;;;;;7.00;4.75;;;;;3.28;56.76;100525.91;112792;240;40747;-54
2024/01/22 10:33:13;;;;;;;;;7.00;6.00;;;;;3.33;56.19;100496.94;112799;240;39810;-54
2024/01/22 10:35:50;;;;;;;;;6.00;5.00;;;;;3.39;55.45;100481.07;112861;240;39030;-54
2024/01/22 10:38:27;;;;;;;;;6.75;5.00;;;;;3.44;56.50;100495.36;112821;240;40236;-53
2024/01/22 10:41:19;;;;;;;;;6.00;4.00;;;;;3.49;55.71;100470.91;112810;240;39839;-53
2024/01/22 10:43:59;;;;;;;;;7.00;5.00;;;;;3.54;54.31;100475.93;112826;240;39580;-54
2024/01/22 10:46:47;;;;;;;;;6.00;4.25;;;;;3.58;56.01;100464.48;112785;240;40738;-55
2024/01/22 10:49:28;;;;;;;;;6.00;5.00;;;;;3.63;55.88;100466.54;112800;240;40339;-51
2024/01/22 10:52:06;;;;;;;;;7.00;5.33;;;;;3.70;55.14;100461.59;112836;240;39452;-52
2024/01/22 10:54:45;;;;;;;;;7.75;5.50;;;;;3.76;54.92;100461.35;112855;240;39182;-51
2024/01/22 10:57:37;;;;;;;;;6.75;5.00;;;;;3.79;53.88;100461.13;112845;240;41488;-51
2024/01/22 11:00:17;;;;;;;;;6.00;5.00;;;;;3.87;53.82;100458.20;112805;240;39960;-52
2024/01/22 11:03:03;;;;;;;;;4.00;3.00;;;;;3.90;54.57;100456.67;112789;240;38950;-52
2024/01/22 11:05:42;;;;;;;;;7.00;5.50;;;;;3.94;55.16;100457.48;112819;240;39551;-52
2024/01/22 11:08:26;;;;;;;;;6.25;4.00;;;;;4.01;53.81;100446.37;112775;240;40795;-51
2024/01/22 11:11:08;;;;;;;;;8.00;6.00;;;;;4.05;54.45;100421.11;112779;240;39727;-54
2024/01/22 11:13:48;;;;;;;;;6.00;4.00;;;;;4.09;54.61;100420.08;112807;240;39957;-54
2024/01/22 11:16:28;;;;;;;;;3.75;3.25;;;;;4.08;54.56;100411.46;112790;240;40474;-54
2024/01/22 11:19:08;;;;;;;;;8.00;5.50;;;;;4.12;54.95;100405.30;112820;240;39634;-54
2024/01/22 11:21:44;;;;;;;;;6.00;5.00;;;;;4.17;54.84;100407.50;112781;240;39474;-54
2024/01/22 11:24:27;;;;;;;;;7.25;6.00;;;;;4.23;54.31;100398.61;112809;240;40244;-54
2024/01/22 11:27:11;;;;;;;;;4.50;3.00;;;;;4.28;54.62;100388.88;112773;240;40643;-54
2024/01/22 11:29:54;;;;;;;;;7.50;6.00;;;;;4.32;53.63;100388.05;112824;240;41161;-52
2024/01/22 11:32:42;;;;;;;;;4.00;4.00;;;;;4.37;53.25;100387.79;112770;240;39545;-53
2024/01/22 11:35:37;;;;;;;;;6.00;5.00;;;;;4.41;52.64;100392.17;112793;240;39550;-52
2024/01/22 11:38:15;;;;;;;;;6.67;5.00;;;;;4.51;53.75;100410.41;112808;240;39547;-52
2024/01/22 11:40:56;;;;;;;;;6.00;5.00;;;;;4.59;53.71;100419.27;112800;240;41027;-54
2024/01/22 11:43:35;;;;;;;;;8.75;6.00;;;;;4.63;52.48;100424.92;112825;240;40806;-54
2024/01/22 11:46:24;;;;;;;;;7.00;5.00;;;;;4.69;54.18;100422.67;112863;240;39213;-51
2024/01/22 11:49:14;;;;;;;;;7.50;6.00;;;;;4.74;52.47;100415.04;112832;240;39397;-55
2024/01/22 11:51:52;;;;;;;;;4.00;4.00;;;;;4.70;52.73;100414.73;112772;240;39881;-56
2024/01/22 11:54:31;;;;;;;;;6.25;4.25;;;;;4.70;53.47;100404.09;112791;240;41279;-53
2024/01/22 11:57:14;;;;;;;;;8.25;7.00;;;;;4.72;52.14;100399.43;112799;240;40120;-52
2024/01/22 12:00:04;;;;;;;;;7.00;5.00;;;;;4.66;52.34;100394.35;112818;240;40097;-51
2024/01/22 12:02:39;;;;;;;;;8.00;6.00;;;;;4.61;52.67;100391.27;112814;240;39187;-51
2024/01/22 12:05:17;;;;;;;;;7.00;6.00;;;;;4.57;52.86;100383.84;112809;240;39108;-55
2024/01/22 12:07:55;;;;;;;;;7.00;5.00;;;;;4.56;52.57;100370.11;112816;240;41260;-55
2024/01/22 12:10:39;;;;;;;;;7.00;6.00;;;;;4.57;53.17;100369.14;112769;240;40015;-55
2024/01/22 12:13:26;;;;;;;;;9.00;7.00;;;;;4.55;52.93;100364.34;112781;240;41340;-55
2024/01/22 12:16:04;;;;;;;;;7.00;4.00;;;;;4.54;52.99;100361.45;112828;240;40671;-54
2024/01/22 12:18:41;;;;;;;;;9.00;6.00;;;;;4.60;52.76;100354.92;112795;240;39525;-53